Tuesday, August 21, 2018, 1:53 PM GMT
Back to Local

CYOW, Ottawa Int'L. Ont.

Location: , , Canada Lat: 45.317
Local Time: 1:53 PM GMT (13:53 GMT) Lon: -75.667
Time Zone: GMT Elev: 380 ft

Show me the last for .
Show Decoded

2018-08-21 07:00 METAR CYOW 210700Z 16003KT 15SM FEW065 BKN260 17/15 A3004 RMK SC2CI4 SLP175
                 DENSITY ALT 600FT =
2018-08-21 05:00 METAR CYOW 210500Z 13005KT 15SM SCT070 BKN260 19/15 A3007 RMK AC3CI4 SLP184
                 DENSITY ALT 800FT =
2018-08-21 04:00 METAR CYOW 210400Z 13003KT 15SM FEW070 BKN260 19/15 A3008 RMK AC2CI4 SLP186
                 DENSITY ALT 800FT =
2018-08-21 03:00 METAR CYOW 210300Z 16003KT 15SM SCT060 BKN250 19/15 A3009 RMK SC3CI2 SLP189
                 DENSITY ALT 800FT =
2018-08-21 02:00 METAR CYOW 210200Z 12003KT 15SM FEW060 BKN250 20/15 A3009 RMK SC1CI4 SLP189
                 DENSITY ALT 900FT =
2018-08-21 01:00 METAR CYOW 210100Z 12003KT 15SM BKN250 21/15 A3009 RMK CI5 SLP191 DENSITY ALT
                 1000FT =
2018-08-21 00:00 METAR CYOW 210000Z 13003KT 15SM FEW060 BKN250 23/16 A3008 RMK SC1CI5 SC TR
                 SLP188 DENSITY ALT 1200FT =
2018-08-20 23:00 METAR CYOW 202300Z 16003KT 15SM FEW060 SCT250 24/17 A3007 RMK SC1CI4 SC TR
                 SLP185 DENSITY ALT 1400FT =
2018-08-20 22:00 METAR CYOW 202200Z 16003KT 15SM FEW050 FEW170 SCT220 SCT250 26/14 A3008 RMK
                 CU1AC1CI2CI1 CU TR SLP186 DENSITY ALT 1600FT =
2018-08-20 21:00 METAR CYOW 202100Z 15009KT 15SM FEW050 SCT180 SCT220 SCT250 27/14 A3008 RMK
                 CU2AC1CI1CI1 CI TR SLP186 DENSITY ALT 1700FT =
2018-08-20 20:00 METAR CYOW 202000Z 16008KT 15SM SCT050 SCT180 BKN220 27/15 A3008 RMK CU3AC1CI2
                 AC TR SLP187 DENSITY ALT 1700FT =
2018-08-20 19:00 METAR CYOW 201900Z 13011KT 15SM SCT050 BKN220 27/15 A3010 RMK CU3CI2 SLP194
                 DENSITY ALT 1700FT =
2018-08-20 18:00 METAR CYOW 201800Z 17006KT 120V210 15SM BKN045 27/15 A3011 RMK CU6 SLP199
                 DENSITY ALT 1700FT =
2018-08-20 17:00 METAR CYOW 201700Z VRB02KT 15SM BKN030 BKN250 26/16 A3012 RMK CU5CI1 CI TR
                 SLP201 DENSITY ALT 1500FT =
2018-08-20 16:00 METAR CYOW 201600Z 17006KT 110V200 15SM SCT030 SCT100 SCT250 26/17 A3014 RMK
                 CU4AC1CI1 AC TR CI TR SLP208 DENSITY ALT 1500FT =
2018-08-20 15:00 METAR CYOW 201500Z 20005KT 120V250 15SM FEW025 FEW100 FEW250 24/17 A3015 RMK
                 CU1AC1CI1 CU TR AC TR SLP213 DENSITY ALT 1300FT =
2018-08-20 14:00 METAR CYOW 201400Z 23005KT 190V290 15SM FEW070 FEW250 22/17 A3016 RMK AC1CI1 CI
                 TR SLP213 DENSITY ALT 1100FT =

Support USWX by starting your Amazon purchase here.